Webcam Flughafen St.Gallen-Altenrhein

Live-Bilder und Zeitraffer LSZR / ACH.

 

Live aus Altenrhein
LIVE
LSZR 181350Z 32003KT CAVOK 28/14 Q1011 NOSIG RMK H
Zeitraffer heute
2019-08-18 00:13:55
LSZR 172150Z AUTO 08003KT CAVOK 19/16 Q1013
Zeitraffer gestern
2019-08-17 00:14:26
LSZR 162150Z AUTO VRB02KT 9999 R10/1000U NCD 15/13 Q1017
Zeitraffer vor 3 Tagen
2019-08-15 00:14:38
LSZR 142150Z AUTO 10004KT 060V180 CAVOK 14/12 Q1018